createdAt,value
2019-03-22T00:00:49.521Z,99.90
2019-03-22T00:03:19.295Z,99.90
2019-03-22T00:05:49.051Z,99.90
2019-03-22T00:08:19.496Z,99.90
2019-03-22T00:10:49.250Z,99.90
2019-03-22T00:13:19.011Z,99.90
2019-03-22T00:15:48.816Z,99.90
2019-03-22T00:18:18.576Z,99.90
2019-03-22T00:20:48.351Z,99.90
2019-03-22T00:23:18.156Z,99.90
2019-03-22T00:25:47.987Z,99.90
2019-03-22T00:28:17.688Z,99.90
2019-03-22T00:30:47.421Z,99.90
2019-03-22T00:33:17.111Z,99.90
2019-03-22T00:35:46.868Z,99.90
2019-03-22T00:38:16.595Z,99.90
2019-03-22T00:40:46.375Z,99.90
2019-03-22T00:43:16.054Z,99.90
2019-03-22T00:45:45.837Z,99.90
2019-03-22T00:48:15.520Z,99.90
2019-03-22T00:50:45.285Z,99.90
2019-03-22T00:53:15.000Z,99.90
2019-03-22T00:55:44.854Z,99.90
2019-03-22T00:58:14.603Z,99.90
2019-03-22T01:00:44.410Z,99.90
2019-03-22T01:03:14.164Z,99.90
2019-03-22T01:05:43.923Z,99.90
2019-03-22T01:08:13.632Z,99.90
2019-03-22T01:10:43.325Z,99.90
2019-03-22T01:13:12.987Z,99.90
2019-03-22T01:15:42.720Z,99.90
2019-03-22T01:18:12.473Z,99.90
2019-03-22T01:20:42.252Z,99.90
2019-03-22T01:23:11.967Z,99.90
2019-03-22T01:25:41.720Z,99.90
2019-03-22T01:28:11.479Z,99.90
2019-03-22T01:30:41.269Z,99.90
2019-03-22T01:33:10.955Z,99.90
2019-03-22T01:35:40.709Z,99.90
2019-03-22T01:38:10.455Z,99.90
2019-03-22T01:40:40.124Z,99.90
2019-03-22T01:43:09.795Z,99.90
2019-03-22T01:45:39.656Z,99.90
2019-03-22T01:48:09.330Z,99.90
2019-03-22T01:50:39.108Z,99.90
2019-03-22T01:53:08.835Z,99.90
2019-03-22T01:55:38.724Z,99.90
2019-03-22T01:58:08.404Z,99.90
2019-03-22T02:00:38.327Z,99.90
2019-03-22T02:03:08.203Z,99.90
2019-03-22T02:05:37.870Z,99.90
2019-03-22T02:08:07.681Z,99.90
2019-03-22T02:10:37.863Z,99.90
2019-03-22T02:13:07.694Z,99.90
2019-03-22T02:15:37.498Z,99.90
2019-03-22T02:18:07.246Z,99.90
2019-03-22T02:20:36.941Z,99.90
2019-03-22T02:23:06.803Z,99.90
2019-03-22T02:25:36.496Z,99.90
2019-03-22T02:28:06.175Z,99.90
2019-03-22T02:30:36.170Z,99.90
2019-03-22T02:33:06.319Z,99.90
2019-03-22T02:35:36.054Z,99.90
2019-03-22T02:38:05.866Z,99.90
2019-03-22T02:40:35.610Z,99.90
2019-03-22T02:43:08.448Z,99.90
2019-03-22T02:45:38.226Z,99.90
2019-03-22T02:48:08.058Z,99.90
2019-03-22T02:50:38.259Z,99.90
2019-03-22T02:53:07.970Z,99.90
2019-03-22T02:55:37.826Z,99.90
2019-03-22T02:58:19.890Z,99.90
2019-03-22T03:00:39.018Z,99.90
2019-03-22T03:03:08.713Z,99.90
2019-03-22T03:05:38.550Z,99.90
2019-03-22T03:08:08.260Z,99.90
2019-03-22T03:10:38.093Z,99.90
2019-03-22T03:13:07.845Z,99.90
2019-03-22T03:15:39.261Z,99.90
2019-03-22T03:18:09.022Z,99.90
2019-03-22T03:20:38.889Z,99.90
2019-03-22T03:23:08.696Z,99.90
2019-03-22T03:25:38.433Z,99.90
2019-03-22T03:28:08.184Z,99.90
2019-03-22T03:30:38.046Z,99.90
2019-03-22T03:33:07.741Z,99.90
2019-03-22T03:35:37.489Z,99.90
2019-03-22T03:38:07.590Z,99.90
2019-03-22T03:40:37.856Z,99.90
2019-03-22T03:43:07.693Z,99.90
2019-03-22T03:45:38.264Z,99.90
2019-03-22T03:48:09.096Z,99.90
2019-03-22T03:50:39.204Z,99.90
2019-03-22T03:53:09.548Z,99.90
2019-03-22T03:55:39.312Z,99.90
2019-03-22T03:58:09.059Z,99.90
2019-03-22T04:00:38.763Z,99.90
2019-03-22T04:03:10.901Z,99.90
2019-03-22T04:05:40.671Z,99.90
2019-03-22T04:08:10.523Z,99.90
2019-03-22T04:10:40.284Z,99.90
2019-03-22T04:13:09.984Z,99.90
2019-03-22T04:15:40.031Z,99.90
2019-03-22T04:18:09.869Z,99.90
2019-03-22T04:20:39.670Z,99.90
2019-03-22T04:23:09.450Z,99.90
2019-03-22T04:25:39.145Z,99.90
2019-03-22T04:28:08.896Z,99.90
2019-03-22T04:30:38.738Z,99.90
2019-03-22T04:33:08.481Z,99.90
2019-03-22T04:35:38.237Z,99.90
2019-03-22T04:38:08.090Z,99.90
2019-03-22T04:40:37.801Z,99.90
2019-03-22T04:43:07.571Z,99.90
2019-03-22T04:45:38.861Z,99.90
2019-03-22T04:48:16.809Z,99.90
2019-03-22T04:50:49.474Z,99.90
2019-03-22T04:53:22.400Z,99.90
2019-03-22T04:55:56.334Z,99.90
2019-03-22T04:58:27.589Z,99.90
2019-03-22T05:00:59.603Z,99.90
2019-03-22T05:03:30.979Z,99.90
2019-03-22T05:06:02.739Z,99.90
2019-03-22T05:08:35.636Z,99.90
2019-03-22T05:11:06.660Z,99.90
2019-03-22T05:13:38.794Z,99.90
2019-03-22T05:16:11.891Z,99.90
2019-03-22T05:18:45.091Z,99.90
2019-03-22T05:21:16.894Z,99.90
2019-03-22T05:23:48.754Z,99.90
2019-03-22T05:26:20.539Z,99.90
2019-03-22T05:28:51.678Z,99.90
2019-03-22T05:31:46.650Z,99.90
2019-03-22T05:34:16.420Z,99.90
2019-03-22T05:36:46.179Z,99.90
2019-03-22T05:39:15.944Z,99.90
2019-03-22T05:41:45.702Z,99.90
2019-03-22T05:44:15.388Z,99.90
2019-03-22T05:46:45.118Z,99.90
2019-03-22T05:49:14.870Z,99.90
2019-03-22T05:51:44.549Z,99.90
2019-03-22T05:54:14.374Z,99.90
2019-03-22T05:56:44.144Z,99.90
2019-03-22T05:59:13.816Z,99.90
2019-03-22T06:01:45.296Z,99.90
2019-03-22T06:04:15.002Z,99.90
2019-03-22T06:06:44.698Z,99.90
2019-03-22T06:09:14.425Z,99.90
2019-03-22T06:11:44.192Z,99.90
2019-03-22T06:14:14.471Z,99.90
2019-03-22T06:16:44.197Z,99.90
2019-03-22T06:19:14.003Z,99.90
2019-03-22T06:21:43.764Z,99.90
2019-03-22T06:24:13.560Z,99.90
2019-03-22T06:26:43.327Z,99.90
2019-03-22T06:29:13.169Z,99.90
2019-03-22T06:31:43.042Z,99.90
2019-03-22T06:34:12.818Z,99.90
2019-03-22T06:36:42.550Z,99.90
2019-03-22T06:39:12.361Z,99.90
2019-03-22T06:41:42.109Z,99.90
2019-03-22T06:44:11.799Z,99.90
2019-03-22T06:46:41.516Z,99.90
2019-03-22T06:49:11.222Z,99.90
2019-03-22T06:51:40.995Z,99.90
2019-03-22T06:54:10.790Z,99.90
2019-03-22T06:56:40.485Z,99.90
2019-03-22T06:59:10.253Z,99.90
2019-03-22T07:01:40.048Z,99.90
2019-03-22T07:04:09.888Z,99.90
2019-03-22T07:06:39.663Z,99.90
2019-03-22T07:09:10.444Z,99.90
2019-03-22T07:11:41.851Z,99.90
2019-03-22T07:14:11.939Z,99.90
2019-03-22T07:16:41.673Z,99.90
2019-03-22T07:19:11.380Z,99.90
2019-03-22T07:21:41.197Z,99.90
2019-03-22T07:24:10.989Z,99.90
2019-03-22T07:26:40.741Z,99.90
2019-03-22T07:29:10.532Z,99.90
2019-03-22T07:31:40.305Z,99.90
2019-03-22T07:34:09.995Z,99.90
2019-03-22T07:36:39.671Z,99.90
2019-03-22T07:39:09.708Z,99.90
2019-03-22T07:41:39.383Z,99.90
2019-03-22T07:44:09.094Z,99.90
2019-03-22T07:46:38.894Z,99.90
2019-03-22T07:49:08.648Z,99.90
2019-03-22T07:51:38.332Z,99.90
2019-03-22T07:54:08.045Z,99.90
2019-03-22T07:56:37.751Z,99.90
2019-03-22T07:59:09.760Z,99.90
2019-03-22T08:01:38.990Z,99.90
2019-03-22T08:04:08.744Z,99.90
2019-03-22T08:06:38.579Z,99.90
2019-03-22T08:09:09.669Z,99.90
2019-03-22T08:11:39.938Z,99.90
2019-03-22T08:14:09.717Z,99.90
2019-03-22T08:16:39.856Z,99.90
2019-03-22T08:22:50.573Z,99.90
2019-03-22T08:25:20.495Z,99.90
2019-03-22T08:27:50.181Z,99.90
2019-03-22T08:30:20.177Z,99.90
2019-03-22T08:32:50.612Z,99.90
2019-03-22T08:35:20.640Z,99.90
2019-03-22T08:37:52.806Z,99.90
2019-03-22T08:40:22.222Z,99.90
2019-03-22T08:42:51.990Z,99.90
2019-03-22T08:45:21.781Z,99.90
2019-03-22T08:47:51.656Z,99.90
2019-03-22T08:50:21.397Z,99.90
2019-03-22T08:52:51.476Z,99.90
2019-03-22T08:55:21.243Z,99.90
2019-03-22T08:57:51.007Z,99.90
2019-03-22T09:00:21.233Z,99.90
2019-03-22T09:02:50.973Z,99.90
2019-03-22T09:05:20.722Z,99.90
2019-03-22T09:07:50.451Z,99.90
2019-03-22T09:10:20.210Z,99.90
2019-03-22T09:12:49.967Z,99.90
2019-03-22T09:15:19.866Z,99.90
2019-03-22T09:17:49.602Z,99.90
2019-03-22T09:20:19.286Z,99.90
2019-03-22T09:22:49.491Z,99.90
2019-03-22T09:25:19.235Z,99.90
2019-03-22T09:27:48.935Z,99.90
2019-03-22T09:30:18.761Z,99.90
2019-03-22T09:32:48.508Z,99.90
2019-03-22T09:35:18.355Z,99.90
2019-03-22T09:37:48.106Z,99.90
2019-03-22T09:40:17.856Z,99.90
2019-03-22T09:42:48.056Z,99.90
2019-03-22T09:45:18.154Z,99.90
2019-03-22T09:47:47.913Z,99.90
2019-03-22T09:50:17.890Z,99.90
2019-03-22T09:52:47.746Z,99.90
2019-03-22T09:55:17.812Z,99.90
2019-03-22T09:57:49.445Z,99.90
2019-03-22T10:00:32.947Z,98.80
2019-03-22T10:03:03.599Z,96.10
2019-03-22T10:05:33.334Z,94.50
2019-03-22T10:08:03.150Z,91.80
2019-03-22T10:10:32.899Z,89.50
2019-03-22T10:13:02.721Z,91.30
2019-03-22T10:15:32.462Z,87.30
2019-03-22T10:18:02.232Z,85.40
2019-03-22T10:20:32.001Z,87.40
2019-03-22T10:23:01.842Z,83.60
2019-03-22T10:25:31.704Z,84.20
2019-03-22T10:28:01.425Z,79.60
2019-03-22T10:30:31.213Z,79.10
2019-03-22T10:33:00.962Z,74.20
2019-03-22T10:35:30.657Z,72.30
2019-03-22T10:38:01.210Z,74.10
2019-03-22T10:40:31.878Z,68.40
2019-03-22T10:43:01.608Z,69.70
2019-03-22T10:45:31.424Z,69.10
2019-03-22T10:48:01.200Z,68.00
2019-03-22T10:50:30.950Z,65.30
2019-03-22T10:53:00.748Z,60.50
2019-03-22T10:55:30.866Z,59.90
2019-03-22T10:58:00.770Z,58.30
2019-03-22T11:00:30.567Z,52.40
2019-03-22T11:03:00.395Z,51.80
2019-03-22T11:05:30.147Z,52.70
2019-03-22T11:08:00.114Z,50.00
2019-03-22T11:10:29.822Z,50.90
2019-03-22T11:12:59.573Z,52.10
2019-03-22T11:15:29.274Z,47.10
2019-03-22T11:17:58.941Z,48.70
2019-03-22T11:20:28.777Z,48.20
2019-03-22T11:22:58.648Z,41.80
2019-03-22T11:25:28.324Z,41.10
2019-03-22T11:27:58.512Z,38.10
2019-03-22T11:30:28.245Z,34.60
2019-03-22T11:32:58.049Z,37.90
2019-03-22T11:35:27.835Z,36.70
2019-03-22T11:37:57.641Z,35.20
2019-03-22T11:40:27.351Z,34.50
2019-03-22T11:42:57.124Z,36.00
2019-03-22T11:45:26.959Z,36.80
2019-03-22T11:47:56.646Z,37.20
2019-03-22T11:50:26.412Z,36.80
2019-03-22T11:52:56.197Z,37.40
2019-03-22T11:55:25.967Z,35.90
2019-03-22T11:57:55.666Z,34.80
2019-03-22T12:00:25.788Z,36.60
2019-03-22T12:02:55.465Z,33.30
2019-03-22T12:05:25.154Z,34.80
2019-03-22T12:07:54.855Z,34.90
2019-03-22T12:10:24.888Z,33.50
2019-03-22T12:12:54.588Z,35.90
2019-03-22T12:15:24.993Z,35.40
2019-03-22T12:17:54.689Z,35.20
2019-03-22T12:20:25.406Z,36.20
2019-03-22T12:22:55.616Z,34.30
2019-03-22T12:25:26.261Z,32.60
2019-03-22T12:27:56.016Z,32.00
2019-03-22T12:30:25.869Z,32.30
2019-03-22T12:32:55.800Z,31.10
2019-03-22T12:35:25.572Z,33.00
2019-03-22T12:37:57.629Z,31.30
2019-03-22T12:40:26.940Z,31.50
2019-03-22T12:42:56.797Z,32.50
2019-03-22T12:45:28.650Z,30.40
2019-03-22T12:47:58.693Z,30.10
2019-03-22T12:50:29.365Z,33.30
2019-03-22T12:52:59.378Z,29.90
2019-03-22T12:55:29.071Z,27.80
2019-03-22T12:57:59.565Z,30.10
2019-03-22T13:00:29.649Z,32.10
2019-03-22T13:02:59.425Z,29.30
2019-03-22T13:05:29.256Z,27.80
2019-03-22T13:07:59.026Z,28.20
2019-03-22T13:10:29.203Z,28.30
2019-03-22T13:12:58.898Z,29.10
2019-03-22T13:15:28.623Z,29.30
2019-03-22T13:17:58.286Z,28.60
2019-03-22T13:20:27.999Z,28.50
2019-03-22T13:22:57.788Z,29.10
2019-03-22T13:25:27.459Z,30.80
2019-03-22T13:27:57.134Z,29.80
2019-03-22T13:30:38.072Z,28.30
2019-03-22T13:33:07.957Z,29.60
2019-03-22T13:35:37.646Z,31.20
2019-03-22T13:38:07.342Z,29.50
2019-03-22T13:40:37.096Z,28.30
2019-03-22T13:43:06.797Z,28.60
2019-03-22T13:45:36.573Z,31.00
2019-03-22T13:48:06.285Z,28.70
2019-03-22T13:50:36.060Z,27.90
2019-03-22T13:53:05.850Z,30.40
2019-03-22T13:55:35.611Z,28.20
2019-03-22T13:58:05.363Z,30.70
2019-03-22T14:00:35.068Z,29.00
2019-03-22T14:03:04.776Z,27.10
2019-03-22T14:05:34.517Z,26.90
2019-03-22T14:08:04.394Z,28.20
2019-03-22T14:10:37.663Z,29.30
2019-03-22T14:13:08.207Z,26.70
2019-03-22T14:15:37.884Z,28.90
2019-03-22T14:18:08.028Z,30.70
2019-03-22T14:20:37.724Z,26.30
2019-03-22T14:23:07.402Z,28.50
2019-03-22T14:25:37.081Z,27.30
2019-03-22T14:28:06.787Z,26.80
2019-03-22T14:30:36.477Z,28.70
2019-03-22T14:33:13.405Z,28.40
2019-03-22T14:35:37.764Z,27.70
2019-03-22T14:38:07.510Z,26.60
2019-03-22T14:40:37.266Z,24.40
2019-03-22T14:43:07.158Z,23.20
2019-03-22T14:45:36.838Z,23.10
2019-03-22T14:48:06.664Z,21.50
2019-03-22T14:50:36.385Z,22.10
2019-03-22T14:53:06.135Z,19.30
2019-03-22T14:55:35.831Z,21.10
2019-03-22T14:58:05.904Z,22.00
2019-03-22T15:00:35.661Z,19.90
2019-03-22T15:03:24.148Z,19.00
2019-03-22T15:05:55.355Z,17.10
2019-03-22T15:08:25.073Z,17.80
2019-03-22T15:10:54.874Z,16.90
2019-03-22T15:13:29.091Z,17.70
2019-03-22T15:16:08.555Z,17.50
2019-03-22T15:18:53.402Z,17.90
2019-03-22T15:21:51.262Z,17.20
2019-03-22T15:24:45.963Z,16.00
2019-03-22T15:27:33.487Z,16.40
2019-03-22T15:30:22.571Z,17.60
2019-03-22T15:33:09.916Z,15.80
2019-03-22T15:35:51.047Z,16.00
2019-03-22T15:38:58.762Z,18.10
2019-03-22T15:41:28.790Z,16.50
2019-03-22T15:43:58.557Z,15.30
2019-03-22T15:46:28.630Z,16.80
2019-03-22T15:48:58.804Z,16.90
2019-03-22T15:51:28.500Z,14.80
2019-03-22T15:53:58.295Z,14.40
2019-03-22T15:56:27.992Z,15.30
2019-03-22T15:58:57.826Z,16.10
2019-03-22T16:01:27.841Z,16.10
2019-03-22T16:03:57.591Z,15.20
2019-03-22T16:06:27.346Z,15.10
2019-03-22T16:08:57.137Z,16.80
2019-03-22T16:11:27.171Z,15.50
2019-03-22T16:13:56.923Z,17.80
2019-03-22T16:16:27.069Z,17.40
2019-03-22T16:18:56.836Z,17.60
2019-03-22T16:21:26.532Z,16.90
2019-03-22T16:23:56.333Z,16.90
2019-03-22T16:26:26.082Z,15.90
2019-03-22T16:28:55.769Z,16.80
2019-03-22T16:31:25.556Z,16.40
2019-03-22T16:33:55.322Z,16.80
2019-03-22T16:36:25.065Z,18.20
2019-03-22T16:38:54.774Z,18.20
2019-03-22T16:41:24.513Z,16.80
2019-03-22T16:43:54.219Z,18.40
2019-03-22T16:46:24.015Z,19.30
2019-03-22T16:48:53.704Z,16.90
2019-03-22T16:51:23.486Z,17.80
2019-03-22T16:53:53.210Z,18.80
2019-03-22T16:56:22.899Z,19.20
2019-03-22T16:58:52.590Z,19.20
2019-03-22T17:01:22.370Z,19.50
2019-03-22T17:03:52.062Z,22.40
2019-03-22T17:06:21.762Z,21.00
2019-03-22T17:08:51.490Z,23.90
2019-03-22T17:11:21.256Z,25.20
2019-03-22T17:13:50.940Z,22.80
2019-03-22T17:16:20.647Z,26.10
2019-03-22T17:18:50.490Z,24.70
2019-03-22T17:21:20.260Z,26.10
2019-03-22T17:23:49.980Z,30.30
2019-03-22T17:26:19.887Z,31.60
2019-03-22T17:28:49.620Z,33.50
2019-03-22T17:31:19.355Z,35.40
2019-03-22T17:33:49.052Z,38.10
2019-03-22T17:36:18.795Z,38.90
2019-03-22T17:38:48.504Z,44.60
2019-03-22T17:41:18.286Z,46.10
2019-03-22T17:43:48.071Z,45.30
2019-03-22T17:46:17.832Z,46.10
2019-03-22T17:48:47.591Z,48.10
2019-03-22T17:51:17.359Z,51.10
2019-03-22T17:53:47.064Z,48.50
2019-03-22T17:56:16.850Z,49.70
2019-03-22T17:58:46.524Z,52.00
2019-03-22T18:01:16.325Z,52.80
2019-03-22T18:03:46.008Z,53.40
2019-03-22T18:06:15.875Z,53.60
2019-03-22T18:08:45.593Z,55.40
2019-03-22T18:11:15.353Z,55.60
2019-03-22T18:13:45.055Z,58.80
2019-03-22T18:16:14.844Z,57.80
2019-03-22T18:18:44.543Z,56.40
2019-03-22T18:21:14.236Z,59.90
2019-03-22T18:23:43.963Z,62.90
2019-03-22T18:26:13.732Z,65.50
2019-03-22T18:28:43.487Z,64.40
2019-03-22T18:31:13.230Z,64.20
2019-03-22T18:33:42.940Z,63.00
2019-03-22T18:36:12.780Z,64.50
2019-03-22T18:38:42.529Z,63.80
2019-03-22T18:41:12.269Z,63.70
2019-03-22T18:43:42.066Z,65.10
2019-03-22T18:46:11.858Z,64.90
2019-03-22T18:48:41.707Z,65.50
2019-03-22T18:51:11.407Z,66.20
2019-03-22T18:53:41.131Z,68.30
2019-03-22T18:56:10.880Z,69.90
2019-03-22T18:58:40.675Z,69.30
2019-03-22T19:01:10.474Z,68.80
2019-03-22T19:03:40.172Z,70.30
2019-03-22T19:06:09.942Z,72.20
2019-03-22T19:08:39.856Z,73.80
2019-03-22T19:11:09.852Z,74.00
2019-03-22T19:13:39.548Z,73.30
2019-03-22T19:16:09.351Z,71.90
2019-03-22T19:18:39.152Z,73.50
2019-03-22T19:21:09.062Z,72.40
2019-03-22T19:23:38.893Z,74.50
2019-03-22T19:26:08.651Z,73.30
2019-03-22T19:28:38.394Z,73.60
2019-03-22T19:31:09.663Z,69.90
2019-03-22T19:33:39.499Z,72.80
2019-03-22T19:36:09.280Z,72.00
2019-03-22T19:38:39.017Z,71.40
2019-03-22T19:41:08.822Z,73.60
2019-03-22T19:43:38.669Z,71.30
2019-03-22T19:46:08.475Z,71.90
2019-03-22T19:48:38.283Z,73.00
2019-03-22T19:51:08.115Z,72.30
2019-03-22T19:53:38.036Z,72.20
2019-03-22T19:56:07.816Z,72.40
2019-03-22T19:58:37.597Z,73.90
2019-03-22T20:01:07.412Z,73.60
2019-03-22T20:03:37.218Z,75.60
2019-03-22T20:06:06.955Z,76.20
2019-03-22T20:08:37.045Z,74.60
2019-03-22T20:11:06.918Z,77.90
2019-03-22T20:13:36.651Z,76.40
2019-03-22T20:16:06.700Z,76.30
2019-03-22T20:18:36.418Z,75.90
2019-03-22T20:21:06.098Z,80.50
2019-03-22T20:23:36.443Z,78.20
2019-03-22T20:26:06.208Z,77.00
2019-03-22T20:28:35.977Z,77.40
2019-03-22T20:31:05.690Z,76.60
2019-03-22T20:33:35.379Z,76.10
2019-03-22T20:36:05.142Z,78.70
2019-03-22T20:38:34.878Z,76.10
2019-03-22T20:41:04.716Z,80.10
2019-03-22T20:43:34.421Z,79.50
2019-03-22T20:46:04.196Z,78.10
2019-03-22T20:48:33.916Z,78.70
2019-03-22T20:51:03.639Z,80.00
2019-03-22T20:53:33.452Z,79.00
2019-03-22T20:56:03.320Z,78.00
2019-03-22T20:58:33.072Z,79.90
2019-03-22T21:01:02.814Z,83.40
2019-03-22T21:03:32.502Z,82.00
2019-03-22T21:06:04.566Z,81.00
2019-03-22T21:08:34.746Z,83.30
2019-03-22T21:11:04.645Z,82.70
2019-03-22T21:13:34.713Z,84.50
2019-03-22T21:16:04.934Z,84.70
2019-03-22T21:18:34.759Z,83.10
2019-03-22T21:21:04.550Z,84.20
2019-03-22T21:23:36.669Z,84.60
2019-03-22T21:26:06.000Z,85.50
2019-03-22T21:28:35.852Z,84.60
2019-03-22T21:31:05.691Z,86.30
2019-03-22T21:33:35.429Z,90.50
2019-03-22T21:36:05.282Z,90.30
2019-03-22T21:38:35.106Z,90.60
2019-03-22T21:41:04.889Z,90.10
2019-03-22T21:43:34.746Z,91.80
2019-03-22T21:46:04.489Z,92.20
2019-03-22T21:48:34.280Z,93.80
2019-03-22T21:51:04.081Z,93.30
2019-03-22T21:53:33.902Z,92.90
2019-03-22T21:56:03.604Z,93.40
2019-03-22T21:58:33.317Z,96.50
2019-03-22T22:01:03.226Z,94.90
2019-03-22T22:03:33.072Z,97.70
2019-03-22T22:06:02.931Z,96.40
2019-03-22T22:08:32.673Z,97.20
2019-03-22T22:11:02.586Z,98.60
2019-03-22T22:13:32.421Z,98.20
2019-03-22T22:16:02.230Z,97.60
2019-03-22T22:18:32.078Z,97.40
2019-03-22T22:21:01.923Z,99.10
2019-03-22T22:23:31.749Z,99.90
2019-03-22T22:26:01.764Z,99.90
2019-03-22T22:28:31.679Z,99.90
2019-03-22T22:31:01.546Z,99.50
2019-03-22T22:33:31.316Z,99.90
2019-03-22T22:36:01.074Z,99.90
2019-03-22T22:38:31.292Z,99.90
2019-03-22T22:41:00.996Z,99.90
2019-03-22T22:43:32.863Z,99.90
2019-03-22T22:46:02.345Z,99.90
2019-03-22T22:48:32.217Z,99.90
2019-03-22T22:51:02.143Z,99.90
2019-03-22T22:53:31.961Z,99.90
2019-03-22T22:56:01.730Z,99.90
2019-03-22T22:58:31.533Z,99.90
2019-03-22T23:01:01.502Z,99.90
2019-03-22T23:03:31.383Z,99.90
2019-03-22T23:06:09.044Z,99.90
2019-03-22T23:08:32.804Z,99.90
2019-03-22T23:11:02.575Z,99.90
2019-03-22T23:13:32.378Z,99.90
2019-03-22T23:16:02.198Z,99.90
2019-03-22T23:18:31.955Z,99.90
2019-03-22T23:21:01.721Z,99.90
2019-03-22T23:23:31.515Z,99.90
2019-03-22T23:26:01.281Z,99.90
2019-03-22T23:28:30.961Z,99.90
2019-03-22T23:31:00.944Z,99.90
2019-03-22T23:33:30.700Z,99.90
2019-03-22T23:36:00.392Z,99.90
2019-03-22T23:38:30.190Z,99.90
2019-03-22T23:40:59.943Z,99.90
2019-03-22T23:43:29.782Z,99.90
2019-03-22T23:45:59.565Z,99.90
2019-03-22T23:48:29.326Z,99.90
2019-03-22T23:50:59.084Z,99.90
2019-03-22T23:53:28.820Z,99.90
2019-03-22T23:55:58.578Z,99.90
2019-03-22T23:58:28.415Z,99.90
